createdAt,value
2023-02-12T00:00:08.196Z,7.50
2023-02-12T00:00:38.433Z,7.50
2023-02-12T00:01:12.446Z,7.50
2023-02-12T00:01:44.250Z,7.50
2023-02-12T00:02:07.268Z,7.50
2023-02-12T00:02:29.643Z,7.50
2023-02-12T00:03:05.569Z,7.50
2023-02-12T00:03:36.747Z,7.50
2023-02-12T00:04:08.544Z,7.50
2023-02-12T00:04:37.875Z,7.50
2023-02-12T00:05:12.256Z,7.50
2023-02-12T00:05:43.917Z,7.50
2023-02-12T00:06:06.835Z,7.50
2023-02-12T00:06:29.855Z,7.50
2023-02-12T00:07:04.015Z,7.50
2023-02-12T00:07:36.998Z,7.38
2023-02-12T00:08:08.240Z,7.38
2023-02-12T00:08:38.164Z,7.38
2023-02-12T00:09:11.942Z,7.38
2023-02-12T00:09:45.055Z,7.38
2023-02-12T00:10:07.713Z,7.38
2023-02-12T00:10:30.756Z,7.38
2023-02-12T00:11:04.254Z,7.38
2023-02-12T00:11:36.623Z,7.38
2023-02-12T00:12:08.039Z,7.38
2023-02-12T00:12:37.798Z,7.38
2023-02-12T00:13:12.578Z,7.38
2023-02-12T00:13:44.433Z,7.38
2023-02-12T00:14:07.195Z,7.38
2023-02-12T00:14:31.345Z,7.38
2023-02-12T00:15:04.736Z,7.38
2023-02-12T00:15:36.511Z,7.38
2023-02-12T00:16:08.086Z,7.38
2023-02-12T00:16:38.318Z,7.38
2023-02-12T00:17:11.792Z,7.38
2023-02-12T00:17:43.919Z,7.38
2023-02-12T00:18:06.711Z,7.38
2023-02-12T00:18:29.020Z,7.38
2023-02-12T00:19:04.212Z,7.38
2023-02-12T00:19:35.820Z,7.38
2023-02-12T00:20:07.890Z,7.38
2023-02-12T00:20:37.890Z,7.27
2023-02-12T00:21:12.080Z,7.27
2023-02-12T00:21:44.036Z,7.27
2023-02-12T00:22:06.775Z,7.27
2023-02-12T00:22:32.325Z,7.27
2023-02-12T00:23:03.992Z,7.27
2023-02-12T00:23:40.750Z,7.27
2023-02-12T00:24:03.288Z,7.27
2023-02-12T00:24:38.165Z,7.27
2023-02-12T00:25:11.828Z,7.27
2023-02-12T00:25:43.861Z,7.27
2023-02-12T00:26:06.681Z,7.27
2023-02-12T00:26:29.123Z,7.27
2023-02-12T00:27:03.930Z,7.27
2023-02-12T00:27:36.300Z,7.27
2023-02-12T00:28:08.325Z,7.27
2023-02-12T00:28:37.974Z,7.27
2023-02-12T00:29:12.081Z,7.27
2023-02-12T00:29:43.992Z,7.27
2023-02-12T00:30:07.123Z,7.27
2023-02-12T00:30:34.952Z,7.27
2023-02-12T00:31:04.380Z,7.27
2023-02-12T00:31:52.975Z,7.27
2023-02-12T00:32:15.193Z,7.27
2023-02-12T00:32:37.594Z,7.27
2023-02-12T00:33:12.380Z,7.27
2023-02-12T00:33:44.027Z,7.27
2023-02-12T00:34:06.682Z,7.27
2023-02-12T00:34:30.259Z,7.27
2023-02-12T00:35:04.819Z,7.27
2023-02-12T00:35:35.950Z,7.27
2023-02-12T00:36:08.531Z,7.27
2023-02-12T00:36:41.956Z,7.27
2023-02-12T00:37:11.949Z,7.27
2023-02-12T00:37:44.324Z,7.22
2023-02-12T00:38:08.606Z,7.22
2023-02-12T00:38:29.630Z,7.22
2023-02-12T00:39:04.432Z,7.22
2023-02-12T00:39:36.626Z,7.22
2023-02-12T00:40:08.484Z,7.22
2023-02-12T00:40:38.595Z,7.22
2023-02-12T00:41:11.939Z,6.27
2023-02-12T00:41:49.693Z,6.38
2023-02-12T00:42:07.008Z,7.22
2023-02-12T00:42:31.915Z,7.22
2023-02-12T00:43:04.315Z,7.22
2023-02-12T00:43:36.971Z,7.22
2023-02-12T00:44:08.021Z,7.27
2023-02-12T00:44:37.924Z,7.27
2023-02-12T00:45:11.873Z,7.27
2023-02-12T00:45:43.870Z,7.27
2023-02-12T00:46:06.668Z,7.27
2023-02-12T00:46:29.106Z,7.27
2023-02-12T00:47:04.248Z,6.38
2023-02-12T00:47:35.927Z,7.27
2023-02-12T00:48:08.317Z,7.27
2023-02-12T00:48:38.117Z,7.27
2023-02-12T00:49:12.970Z,6.22
2023-02-12T00:49:45.194Z,6.61
2023-02-12T00:50:07.803Z,6.38
2023-02-12T00:50:31.927Z,6.72
2023-02-12T00:51:04.188Z,7.27
2023-02-12T00:51:37.342Z,7.27
2023-02-12T00:52:07.873Z,6.38
2023-02-12T00:52:37.790Z,7.27
2023-02-12T00:53:11.873Z,7.27
2023-02-12T00:53:43.786Z,7.27
2023-02-12T00:54:06.577Z,7.27
2023-02-12T00:54:29.887Z,7.27
2023-02-12T00:55:04.465Z,6.72
2023-02-12T00:55:35.824Z,7.27
2023-02-12T00:56:10.725Z,7.27
2023-02-12T00:56:38.878Z,7.27
2023-02-12T00:57:11.950Z,7.27
2023-02-12T00:57:44.115Z,7.27
2023-02-12T00:58:06.896Z,7.27
2023-02-12T00:58:32.510Z,7.27
2023-02-12T00:59:04.238Z,6.61
2023-02-12T00:59:36.746Z,7.27
2023-02-12T01:00:17.450Z,7.27
2023-02-12T01:00:38.079Z,7.27
2023-02-12T01:01:12.109Z,6.61
2023-02-12T01:01:44.369Z,6.61
2023-02-12T01:02:07.243Z,7.27
2023-02-12T01:02:31.064Z,7.27
2023-02-12T01:03:04.956Z,7.27
2023-02-12T01:03:36.727Z,6.22
2023-02-12T01:04:08.848Z,7.27
2023-02-12T01:04:39.914Z,7.27
2023-02-12T01:05:16.811Z,7.27
2023-02-12T01:05:39.467Z,7.27
2023-02-12T01:06:09.671Z,7.27
2023-02-12T01:06:33.642Z,7.27
2023-02-12T01:07:03.881Z,7.27
2023-02-12T01:07:35.985Z,7.27
2023-02-12T01:08:08.071Z,6.61
2023-02-12T01:08:38.033Z,7.27
2023-02-12T01:09:11.747Z,7.27
2023-02-12T01:09:45.008Z,7.27
2023-02-12T01:10:07.489Z,7.27
2023-02-12T01:10:32.231Z,7.27
2023-02-12T01:11:04.068Z,7.27
2023-02-12T01:11:35.895Z,7.27
2023-02-12T01:12:09.108Z,7.27
2023-02-12T01:12:40.821Z,7.27
2023-02-12T01:13:11.949Z,7.27
2023-02-12T01:13:44.044Z,7.27
2023-02-12T01:14:06.770Z,7.27
2023-02-12T01:14:29.590Z,7.22
2023-02-12T01:15:05.739Z,7.22
2023-02-12T01:15:36.771Z,7.22
2023-02-12T01:16:08.307Z,7.22
2023-02-12T01:16:38.113Z,7.22
2023-02-12T01:17:11.972Z,7.22
2023-02-12T01:17:43.896Z,7.22
2023-02-12T01:18:06.751Z,7.22
2023-02-12T01:18:29.133Z,7.22
2023-02-12T01:19:03.942Z,7.22
2023-02-12T01:19:36.808Z,7.22
2023-02-12T01:20:08.865Z,7.22
2023-02-12T01:20:40.234Z,7.22
2023-02-12T01:21:13.635Z,7.22
2023-02-12T01:21:47.582Z,7.22
2023-02-12T01:22:06.700Z,7.22
2023-02-12T01:22:30.080Z,7.22
2023-02-12T01:23:04.553Z,7.22
2023-02-12T01:23:36.546Z,7.22
2023-02-12T01:24:07.964Z,7.22
2023-02-12T01:24:38.062Z,7.22
2023-02-12T01:25:11.879Z,7.22
2023-02-12T01:25:43.796Z,7.22
2023-02-12T01:26:06.533Z,7.22
2023-02-12T01:26:29.061Z,7.22
2023-02-12T01:27:04.617Z,7.22
2023-02-12T01:27:36.343Z,7.22
2023-02-12T01:28:08.528Z,7.22
2023-02-12T01:28:38.053Z,7.22
2023-02-12T01:29:12.438Z,7.11
2023-02-12T01:29:44.166Z,7.11
2023-02-12T01:30:07.234Z,7.11
2023-02-12T01:30:31.547Z,7.11
2023-02-12T01:31:04.469Z,7.11
2023-02-12T01:31:36.519Z,7.11
2023-02-12T01:32:13.916Z,7.11
2023-02-12T01:32:38.450Z,7.11
2023-02-12T01:33:12.066Z,7.11
2023-02-12T01:33:45.720Z,7.11
2023-02-12T01:34:08.571Z,7.11
2023-02-12T01:34:31.151Z,7.11
2023-02-12T01:35:03.939Z,7.11
2023-02-12T01:35:36.509Z,7.11
2023-02-12T01:36:08.472Z,7.11
2023-02-12T01:36:38.018Z,7.11
2023-02-12T01:37:12.896Z,7.11
2023-02-12T01:37:43.870Z,7.11
2023-02-12T01:38:06.687Z,7.11
2023-02-12T01:38:29.450Z,7.11
2023-02-12T01:39:04.834Z,7.11
2023-02-12T01:39:36.515Z,7.11
2023-02-12T01:40:08.237Z,7.11
2023-02-12T01:40:38.402Z,7.11
2023-02-12T01:41:11.866Z,7.11
2023-02-12T01:41:43.874Z,7.11
2023-02-12T01:42:06.556Z,7.11
2023-02-12T01:42:28.972Z,7.11
2023-02-12T01:43:04.621Z,7.11
2023-02-12T01:43:36.873Z,7.11
2023-02-12T01:44:08.265Z,7.11
2023-02-12T01:44:39.129Z,7.11
2023-02-12T01:45:12.150Z,7.11
2023-02-12T01:45:43.886Z,7.11
2023-02-12T01:46:06.785Z,7.11
2023-02-12T01:46:29.613Z,7.11
2023-02-12T01:47:05.243Z,7.11
2023-02-12T01:47:37.231Z,7.11
2023-02-12T01:48:07.853Z,7.11
2023-02-12T01:48:38.827Z,7.11
2023-02-12T01:49:11.798Z,7.11
2023-02-12T01:49:44.096Z,7.11
2023-02-12T01:50:06.793Z,7.11
2023-02-12T01:50:34.939Z,7.11
2023-02-12T01:51:04.105Z,7.11
2023-02-12T01:51:37.429Z,7.11
2023-02-12T01:52:08.071Z,7.11
2023-02-12T01:52:38.196Z,7.11
2023-02-12T01:53:11.913Z,7.11
2023-02-12T01:53:43.733Z,7.11
2023-02-12T01:54:06.526Z,7.11
2023-02-12T01:54:29.540Z,7.11
2023-02-12T01:55:04.132Z,7.11
2023-02-12T01:55:37.842Z,7.11
2023-02-12T01:56:08.070Z,7.00
2023-02-12T01:56:39.066Z,7.00
2023-02-12T01:57:11.721Z,7.00
2023-02-12T01:57:44.135Z,7.00
2023-02-12T01:58:10.732Z,7.00
2023-02-12T01:58:29.422Z,7.00
2023-02-12T01:59:04.203Z,7.00
2023-02-12T01:59:36.045Z,7.00
2023-02-12T02:00:08.659Z,7.00
2023-02-12T02:00:38.530Z,7.11
2023-02-12T02:01:12.345Z,7.11
2023-02-12T02:01:44.119Z,7.11
2023-02-12T02:02:07.020Z,7.11
2023-02-12T02:02:31.795Z,7.11
2023-02-12T02:03:04.215Z,7.11
2023-02-12T02:03:40.638Z,7.11
2023-02-12T02:04:16.364Z,7.11
2023-02-12T02:04:39.031Z,7.11
2023-02-12T02:05:11.834Z,7.11
2023-02-12T02:05:44.073Z,7.11
2023-02-12T02:06:09.237Z,7.11
2023-02-12T02:06:31.341Z,7.11
2023-02-12T02:07:04.195Z,7.11
2023-02-12T02:07:35.807Z,7.11
2023-02-12T02:08:08.180Z,7.11
2023-02-12T02:08:39.581Z,7.11
2023-02-12T02:09:11.828Z,7.11
2023-02-12T02:09:43.756Z,7.11
2023-02-12T02:10:06.393Z,7.11
2023-02-12T02:10:28.698Z,7.11
2023-02-12T02:11:03.876Z,7.11
2023-02-12T02:11:35.855Z,7.11
2023-02-12T02:12:07.818Z,7.11
2023-02-12T02:12:39.815Z,7.11
2023-02-12T02:13:11.838Z,7.11
2023-02-12T02:13:44.095Z,7.11
2023-02-12T02:14:07.070Z,7.11
2023-02-12T02:14:29.456Z,7.11
2023-02-12T02:15:05.584Z,7.11
2023-02-12T02:15:35.805Z,7.11
2023-02-12T02:16:08.153Z,7.11
2023-02-12T02:16:38.238Z,7.11
2023-02-12T02:17:12.003Z,7.11
2023-02-12T02:17:44.177Z,7.11
2023-02-12T02:18:06.852Z,7.11
2023-02-12T02:18:30.751Z,7.11
2023-02-12T02:19:03.820Z,7.11
2023-02-12T02:19:35.862Z,7.11
2023-02-12T02:20:07.855Z,7.11
2023-02-12T02:20:37.947Z,7.11
2023-02-12T02:21:11.926Z,7.11
2023-02-12T02:21:44.092Z,7.11
2023-02-12T02:22:06.713Z,7.11
2023-02-12T02:22:30.634Z,7.11
2023-02-12T02:23:03.833Z,7.11
2023-02-12T02:23:36.141Z,7.11
2023-02-12T02:24:07.939Z,7.11
2023-02-12T02:24:38.175Z,7.11
2023-02-12T02:25:11.723Z,7.11
2023-02-12T02:25:43.887Z,7.11
2023-02-12T02:26:06.517Z,7.11
2023-02-12T02:26:29.006Z,7.11
2023-02-12T02:27:03.807Z,7.11
2023-02-12T02:27:36.375Z,7.11
2023-02-12T02:28:07.835Z,7.11
2023-02-12T02:28:38.178Z,7.11
2023-02-12T02:29:11.781Z,7.11
2023-02-12T02:29:43.947Z,7.11
2023-02-12T02:30:08.552Z,7.11
2023-02-12T02:30:30.437Z,7.11
2023-02-12T02:31:07.379Z,7.11
2023-02-12T02:31:36.025Z,7.11
2023-02-12T02:32:07.800Z,7.11
2023-02-12T02:32:37.912Z,7.11
2023-02-12T02:33:11.709Z,7.11
2023-02-12T02:33:43.829Z,7.11
2023-02-12T02:34:06.818Z,7.11
2023-02-12T02:34:29.257Z,7.11
2023-02-12T02:35:04.041Z,7.11
2023-02-12T02:35:36.377Z,7.11
2023-02-12T02:36:07.864Z,7.11
2023-02-12T02:36:43.185Z,7.00
2023-02-12T02:37:14.471Z,7.00
2023-02-12T02:37:44.155Z,7.00
2023-02-12T02:38:08.298Z,7.00
2023-02-12T02:38:30.773Z,7.00
2023-02-12T02:39:03.839Z,7.00
2023-02-12T02:39:35.756Z,7.00
2023-02-12T02:40:07.781Z,7.00
2023-02-12T02:40:37.932Z,7.00
2023-02-12T02:41:11.806Z,7.00
2023-02-12T02:41:43.774Z,7.00
2023-02-12T02:42:06.512Z,7.00
2023-02-12T02:42:28.816Z,7.00
2023-02-12T02:43:03.899Z,7.00
2023-02-12T02:43:35.806Z,7.00
2023-02-12T02:44:07.646Z,7.00
2023-02-12T02:44:37.845Z,7.00
2023-02-12T02:45:11.759Z,7.00
2023-02-12T02:45:43.877Z,7.00
2023-02-12T02:46:06.504Z,7.00
2023-02-12T02:46:29.106Z,7.00
2023-02-12T02:47:03.776Z,7.00
2023-02-12T02:47:37.421Z,7.00
2023-02-12T02:48:07.718Z,7.00
2023-02-12T02:48:38.214Z,7.00
2023-02-12T02:49:11.740Z,7.00
2023-02-12T02:49:44.594Z,7.00
2023-02-12T02:50:09.088Z,7.00
2023-02-12T02:50:28.983Z,7.00
2023-02-12T02:51:03.960Z,7.00
2023-02-12T02:51:36.014Z,7.00
2023-02-12T02:52:07.813Z,7.00
2023-02-12T02:52:37.957Z,7.00
2023-02-12T02:53:12.100Z,7.00
2023-02-12T02:53:45.014Z,7.00
2023-02-12T02:54:06.767Z,6.88
2023-02-12T02:54:29.600Z,6.88
2023-02-12T02:55:03.839Z,6.88
2023-02-12T02:55:35.964Z,6.88
2023-02-12T02:56:07.821Z,6.88
2023-02-12T02:56:38.140Z,6.88
2023-02-12T02:57:13.282Z,6.88
2023-02-12T02:57:45.498Z,6.88
2023-02-12T02:58:07.039Z,6.88
2023-02-12T02:58:29.572Z,6.88
2023-02-12T02:59:03.797Z,6.88
2023-02-12T02:59:35.713Z,6.88
2023-02-12T03:00:12.818Z,6.88
2023-02-12T03:00:38.043Z,6.88
2023-02-12T03:01:12.203Z,6.88
2023-02-12T03:01:45.452Z,6.88
2023-02-12T03:02:07.639Z,6.88
2023-02-12T03:02:33.391Z,6.88
2023-02-12T03:03:04.322Z,6.88
2023-02-12T03:03:35.823Z,6.88
2023-02-12T03:04:09.311Z,6.88
2023-02-12T03:04:37.889Z,6.88
2023-02-12T03:05:12.041Z,6.88
2023-02-12T03:05:44.142Z,6.88
2023-02-12T03:06:08.473Z,6.88
2023-02-12T03:06:30.872Z,6.77
2023-02-12T03:07:03.789Z,6.77
2023-02-12T03:07:35.649Z,6.77
2023-02-12T03:08:07.921Z,6.77
2023-02-12T03:08:37.898Z,6.88
2023-02-12T03:09:11.740Z,6.77
2023-02-12T03:09:43.718Z,6.88
2023-02-12T03:10:06.488Z,6.88
2023-02-12T03:10:28.769Z,6.88
2023-02-12T03:11:03.825Z,6.88
2023-02-12T03:11:35.717Z,6.88
2023-02-12T03:12:07.820Z,6.88
2023-02-12T03:12:37.838Z,6.88
2023-02-12T03:13:12.008Z,6.88
2023-02-12T03:13:43.663Z,6.88
2023-02-12T03:14:06.397Z,6.88
2023-02-12T03:14:28.678Z,6.88
2023-02-12T03:15:04.213Z,6.88
2023-02-12T03:15:35.806Z,6.88
2023-02-12T03:16:07.706Z,6.88
2023-02-12T03:16:38.039Z,6.88
2023-02-12T03:17:11.789Z,6.88
2023-02-12T03:17:43.746Z,6.88
2023-02-12T03:18:06.868Z,6.88
2023-02-12T03:18:29.200Z,6.88
2023-02-12T03:19:03.821Z,6.88
2023-02-12T03:19:36.190Z,6.88
2023-02-12T03:20:07.692Z,6.88
2023-02-12T03:20:37.825Z,6.88
2023-02-12T03:21:11.768Z,6.88
2023-02-12T03:21:43.828Z,6.88
2023-02-12T03:22:06.594Z,6.88
2023-02-12T03:22:31.499Z,6.88
2023-02-12T03:23:03.835Z,6.88
2023-02-12T03:23:35.790Z,6.88
2023-02-12T03:24:07.795Z,6.88
2023-02-12T03:24:37.862Z,6.88
2023-02-12T03:25:12.123Z,6.88
2023-02-12T03:25:43.685Z,6.88
2023-02-12T03:26:06.482Z,6.88
2023-02-12T03:26:28.920Z,6.88
2023-02-12T03:27:03.778Z,6.88
2023-02-12T03:27:36.301Z,6.88
2023-02-12T03:28:07.920Z,6.88
2023-02-12T03:28:37.958Z,6.88
2023-02-12T03:29:11.795Z,6.88
2023-02-12T03:29:47.350Z,6.88
2023-02-12T03:30:07.440Z,6.88
2023-02-12T03:30:29.104Z,6.77
2023-02-12T03:31:04.021Z,6.77
2023-02-12T03:31:35.869Z,6.77
2023-02-12T03:32:07.671Z,6.77
2023-02-12T03:32:37.884Z,6.77
2023-02-12T03:33:11.826Z,6.77
2023-02-12T03:33:43.784Z,6.77
2023-02-12T03:34:06.911Z,6.77
2023-02-12T03:34:29.222Z,6.77
2023-02-12T03:35:05.145Z,6.77
2023-02-12T03:35:37.211Z,6.77
2023-02-12T03:36:07.899Z,6.72
2023-02-12T03:36:37.890Z,6.72
2023-02-12T03:37:12.047Z,6.72
2023-02-12T03:37:43.760Z,6.72
2023-02-12T03:38:06.362Z,6.72
2023-02-12T03:38:28.740Z,6.72
2023-02-12T03:39:03.915Z,6.72
2023-02-12T03:39:35.683Z,6.72
2023-02-12T03:40:07.862Z,6.72
2023-02-12T03:40:37.880Z,6.72
2023-02-12T03:41:11.818Z,6.72
2023-02-12T03:41:43.684Z,6.72
2023-02-12T03:42:06.350Z,6.72
2023-02-12T03:42:28.730Z,6.72
2023-02-12T03:43:03.774Z,6.72
2023-02-12T03:43:35.711Z,6.72
2023-02-12T03:44:07.679Z,6.72
2023-02-12T03:44:37.867Z,6.72
2023-02-12T03:45:11.792Z,6.72
2023-02-12T03:45:43.724Z,6.72
2023-02-12T03:46:06.735Z,6.72
2023-02-12T03:46:28.814Z,6.72
2023-02-12T03:47:03.829Z,6.72
2023-02-12T03:47:35.706Z,6.72
2023-02-12T03:48:07.650Z,6.72
2023-02-12T03:48:38.215Z,6.72
2023-02-12T03:49:11.819Z,6.72
2023-02-12T03:49:43.718Z,6.72
2023-02-12T03:50:09.697Z,6.72
2023-02-12T03:50:29.606Z,6.72
2023-02-12T03:51:04.170Z,6.72
2023-02-12T03:51:35.949Z,6.72
2023-02-12T03:52:07.873Z,6.72
2023-02-12T03:52:34.152Z,6.72
2023-02-12T03:53:12.093Z,6.72
2023-02-12T03:53:43.971Z,6.72
2023-02-12T03:54:06.803Z,6.72
2023-02-12T03:54:29.885Z,6.72
2023-02-12T03:55:04.591Z,6.61
2023-02-12T03:55:35.997Z,6.61
2023-02-12T03:56:11.844Z,6.61
2023-02-12T03:56:34.315Z,6.61
2023-02-12T03:57:12.064Z,6.61
2023-02-12T03:57:43.886Z,6.61
2023-02-12T03:58:06.948Z,6.61
2023-02-12T03:58:29.486Z,6.61
2023-02-12T03:59:03.770Z,6.61
2023-02-12T03:59:35.926Z,6.61
2023-02-12T04:00:08.031Z,6.61
2023-02-12T04:00:37.948Z,6.61
2023-02-12T04:01:11.876Z,6.61
2023-02-12T04:01:44.228Z,6.61
2023-02-12T04:02:06.875Z,6.61
2023-02-12T04:02:29.222Z,6.61
2023-02-12T04:03:13.257Z,6.61
2023-02-12T04:03:36.597Z,6.61
2023-02-12T04:04:08.320Z,6.61
2023-02-12T04:04:40.182Z,6.61
2023-02-12T04:05:11.678Z,6.61
2023-02-12T04:05:43.696Z,6.61
2023-02-12T04:06:08.376Z,6.72
2023-02-12T04:06:31.171Z,6.72
2023-02-12T04:07:03.695Z,6.72
2023-02-12T04:07:37.162Z,6.72
2023-02-12T04:08:13.288Z,6.72
2023-02-12T04:08:38.101Z,6.72
2023-02-12T04:09:11.638Z,6.72
2023-02-12T04:09:43.869Z,6.72
2023-02-12T04:10:07.184Z,6.72
2023-02-12T04:10:29.592Z,6.72
2023-02-12T04:11:03.741Z,6.61
2023-02-12T04:11:35.607Z,6.61
2023-02-12T04:12:07.910Z,6.61
2023-02-12T04:12:39.670Z,6.61
2023-02-12T04:13:11.981Z,6.61
2023-02-12T04:13:43.719Z,6.61
2023-02-12T04:14:08.032Z,6.61
2023-02-12T04:14:28.901Z,6.61
2023-02-12T04:15:04.002Z,6.61
2023-02-12T04:15:35.766Z,6.61
2023-02-12T04:16:07.791Z,6.61
2023-02-12T04:16:38.221Z,6.61
2023-02-12T04:17:11.865Z,6.61
2023-02-12T04:17:43.748Z,6.61
2023-02-12T04:18:06.849Z,6.61
2023-02-12T04:18:29.172Z,6.61
2023-02-12T04:19:03.978Z,6.61
2023-02-12T04:19:35.753Z,6.61
2023-02-12T04:20:07.750Z,6.61
2023-02-12T04:20:37.893Z,6.61
2023-02-12T04:21:11.720Z,6.61
2023-02-12T04:21:43.645Z,6.61
2023-02-12T04:22:06.487Z,6.61
2023-02-12T04:22:29.126Z,6.61
2023-02-12T04:23:04.192Z,6.61
2023-02-12T04:23:35.770Z,6.61
2023-02-12T04:24:07.593Z,6.61
2023-02-12T04:24:37.931Z,6.61
2023-02-12T04:25:11.753Z,6.61
2023-02-12T04:25:43.660Z,6.61
2023-02-12T04:26:06.942Z,6.61
2023-02-12T04:26:29.226Z,6.61
2023-02-12T04:27:03.833Z,6.61
2023-02-12T04:27:35.752Z,6.61
2023-02-12T04:28:08.026Z,6.61
2023-02-12T04:28:39.774Z,6.61
2023-02-12T04:29:11.762Z,6.61
2023-02-12T04:29:43.762Z,6.61
2023-02-12T04:30:06.811Z,6.61
2023-02-12T04:30:28.878Z,6.61
2023-02-12T04:31:04.006Z,6.61
2023-02-12T04:31:35.971Z,6.61
2023-02-12T04:32:07.859Z,6.61
2023-02-12T04:32:37.982Z,6.61
2023-02-12T04:33:12.036Z,6.61
2023-02-12T04:33:43.792Z,6.61
2023-02-12T04:34:06.605Z,6.61
2023-02-12T04:34:28.962Z,6.61
2023-02-12T04:35:04.064Z,6.61
2023-02-12T04:35:39.440Z,6.61
2023-02-12T04:36:07.671Z,6.61
2023-02-12T04:36:38.003Z,6.61
2023-02-12T04:37:11.885Z,6.61
2023-02-12T04:37:43.819Z,6.61
2023-02-12T04:38:06.681Z,6.61
2023-02-12T04:38:29.114Z,6.61
2023-02-12T04:39:04.002Z,6.50
2023-02-12T04:39:35.615Z,6.50
2023-02-12T04:40:07.655Z,6.50
2023-02-12T04:40:37.855Z,6.50
2023-02-12T04:41:11.627Z,6.50
2023-02-12T04:41:43.699Z,6.50
2023-02-12T04:42:06.535Z,6.50
2023-02-12T04:42:28.978Z,6.50
2023-02-12T04:43:03.786Z,6.50
2023-02-12T04:43:36.718Z,6.50
2023-02-12T04:44:07.799Z,6.50
2023-02-12T04:44:39.775Z,6.50
2023-02-12T04:45:11.983Z,6.50
2023-02-12T04:45:43.676Z,6.50
2023-02-12T04:46:06.518Z,6.50
2023-02-12T04:46:28.759Z,6.50
2023-02-12T04:47:03.826Z,6.50
2023-02-12T04:47:35.641Z,6.50
2023-02-12T04:48:07.692Z,6.50
2023-02-12T04:48:38.110Z,6.50
2023-02-12T04:49:11.676Z,6.50
2023-02-12T04:49:44.158Z,6.50
2023-02-12T04:50:06.647Z,6.50
2023-02-12T04:50:28.961Z,6.61
2023-02-12T04:51:03.969Z,6.50
2023-02-12T04:51:35.794Z,6.50
2023-02-12T04:52:08.255Z,6.50
2023-02-12T04:52:37.970Z,6.50
2023-02-12T04:53:11.630Z,6.50
2023-02-12T04:53:43.834Z,6.50
2023-02-12T04:54:06.559Z,6.50
2023-02-12T04:54:29.083Z,6.50
2023-02-12T04:55:03.782Z,6.50
2023-02-12T04:55:35.779Z,6.50
2023-02-12T04:56:07.878Z,6.50
2023-02-12T04:56:37.892Z,6.50
2023-02-12T04:57:11.644Z,6.50
2023-02-12T04:57:49.318Z,6.50
2023-02-12T04:58:06.837Z,6.50
2023-02-12T04:58:29.065Z,6.50
2023-02-12T04:59:03.883Z,6.50
2023-02-12T04:59:35.621Z,6.50
2023-02-12T05:00:08.228Z,6.50
2023-02-12T05:00:38.857Z,6.50
2023-02-12T05:01:15.438Z,6.50
2023-02-12T05:01:44.319Z,6.50
2023-02-12T05:02:06.956Z,6.50
2023-02-12T05:02:29.150Z,6.50
2023-02-12T05:03:05.660Z,6.50
2023-02-12T05:03:39.431Z,6.50
2023-02-12T05:04:08.203Z,6.50
2023-02-12T05:04:40.643Z,6.50
2023-02-12T05:05:12.002Z,6.50
2023-02-12T05:05:43.890Z,6.50
2023-02-12T05:06:08.557Z,6.50
2023-02-12T05:06:31.088Z,6.50
2023-02-12T05:07:06.081Z,6.50
2023-02-12T05:07:36.162Z,6.50
2023-02-12T05:08:09.515Z,6.50
2023-02-12T05:08:39.961Z,6.50
2023-02-12T05:09:12.056Z,6.50
2023-02-12T05:09:43.909Z,6.50
2023-02-12T05:10:06.718Z,6.50
2023-02-12T05:10:30.380Z,6.50
2023-02-12T05:11:06.667Z,6.50
2023-02-12T05:11:35.907Z,6.50
2023-02-12T05:12:08.425Z,6.50
2023-02-12T05:12:38.147Z,6.50
2023-02-12T05:13:11.682Z,6.50
2023-02-12T05:13:43.728Z,6.50
2023-02-12T05:14:06.549Z,6.50
2023-02-12T05:14:29.112Z,6.50
2023-02-12T05:15:07.194Z,6.50
2023-02-12T05:15:35.899Z,6.38
2023-02-12T05:16:08.490Z,6.38
2023-02-12T05:16:38.024Z,6.38
2023-02-12T05:17:19.492Z,6.38
2023-02-12T05:17:43.880Z,6.38
2023-02-12T05:18:06.827Z,6.38
2023-02-12T05:18:29.145Z,6.38
2023-02-12T05:19:03.712Z,6.38
2023-02-12T05:19:35.694Z,6.38
2023-02-12T05:20:07.641Z,6.38
2023-02-12T05:20:37.858Z,6.38
2023-02-12T05:21:12.027Z,6.38
2023-02-12T05:21:43.636Z,6.38
2023-02-12T05:22:06.757Z,6.38
2023-02-12T05:22:29.371Z,6.38
2023-02-12T05:23:10.823Z,6.38
2023-02-12T05:23:32.303Z,6.38
2023-02-12T05:24:08.224Z,6.38
2023-02-12T05:24:38.472Z,6.38
2023-02-12T05:25:11.865Z,6.38
2023-02-12T05:25:44.360Z,6.38
2023-02-12T05:26:07.108Z,6.38
2023-02-12T05:26:30.561Z,6.38
2023-02-12T05:27:03.933Z,6.38
2023-02-12T05:27:36.494Z,6.38
2023-02-12T05:28:07.889Z,6.38
2023-02-12T05:28:39.336Z,6.38
2023-02-12T05:29:12.234Z,6.38
2023-02-12T05:29:44.412Z,6.38
2023-02-12T05:30:06.813Z,6.27
2023-02-12T05:30:28.963Z,6.27
2023-02-12T05:31:04.159Z,6.27
2023-02-12T05:31:39.028Z,6.27
2023-02-12T05:32:07.935Z,6.27
2023-02-12T05:32:38.947Z,6.27
2023-02-12T05:33:11.767Z,6.22
2023-02-12T05:33:44.171Z,6.22
2023-02-12T05:34:06.691Z,6.22
2023-02-12T05:34:29.153Z,6.22
2023-02-12T05:35:04.503Z,6.22
2023-02-12T05:35:36.162Z,6.11
2023-02-12T05:36:08.124Z,6.11
2023-02-12T05:36:40.411Z,6.11
2023-02-12T05:37:11.945Z,6.11
2023-02-12T05:37:44.212Z,6.11
2023-02-12T05:38:06.827Z,6.11
2023-02-12T05:38:29.370Z,6.00
2023-02-12T05:39:03.617Z,6.00
2023-02-12T05:39:36.019Z,6.00
2023-02-12T05:40:09.063Z,6.00
2023-02-12T05:40:40.102Z,6.00
2023-02-12T05:41:11.651Z,6.00
2023-02-12T05:41:43.633Z,6.00
2023-02-12T05:42:06.401Z,6.00
2023-02-12T05:42:29.347Z,6.00
2023-02-12T05:43:03.880Z,6.00
2023-02-12T05:43:35.741Z,6.00
2023-02-12T05:44:08.158Z,6.00
2023-02-12T05:44:37.871Z,6.00
2023-02-12T05:45:11.913Z,6.00
2023-02-12T05:45:43.668Z,6.00
2023-02-12T05:46:06.479Z,6.00
2023-02-12T05:46:28.771Z,6.00
2023-02-12T05:47:04.223Z,6.00
2023-02-12T05:47:35.808Z,6.11
2023-02-12T05:48:07.701Z,6.11
2023-02-12T05:48:38.251Z,6.11
2023-02-12T05:49:11.780Z,6.11
2023-02-12T05:49:44.689Z,6.11
2023-02-12T05:50:07.352Z,6.11
2023-02-12T05:50:31.261Z,6.11
2023-02-12T05:51:04.518Z,6.11
2023-02-12T05:51:36.142Z,6.11
2023-02-12T05:52:07.989Z,6.11
2023-02-12T05:52:41.352Z,6.11
2023-02-12T05:53:12.320Z,6.11
2023-02-12T05:53:43.794Z,6.11
2023-02-12T05:54:06.818Z,6.11
2023-02-12T05:54:28.966Z,6.11
2023-02-12T05:55:04.451Z,6.11
2023-02-12T05:55:35.830Z,6.11
2023-02-12T05:56:07.665Z,6.22
2023-02-12T05:56:38.272Z,6.22
2023-02-12T05:57:12.377Z,6.22
2023-02-12T05:57:44.362Z,6.22
2023-02-12T05:58:06.803Z,6.22
2023-02-12T05:58:29.601Z,6.22
2023-02-12T05:59:05.429Z,6.11
2023-02-12T05:59:36.657Z,6.11
2023-02-12T06:00:08.503Z,6.11
2023-02-12T06:00:39.799Z,6.00
2023-02-12T06:01:12.486Z,6.00
2023-02-12T06:01:44.058Z,6.00
2023-02-12T06:02:06.409Z,6.00
2023-02-12T06:02:31.283Z,5.88
2023-02-12T06:03:04.266Z,5.88
2023-02-12T06:03:36.185Z,5.88
2023-02-12T06:04:09.490Z,5.88
2023-02-12T06:04:38.582Z,5.88
2023-02-12T06:05:13.818Z,5.77
2023-02-12T06:05:49.742Z,5.77
2023-02-12T06:06:07.132Z,5.77
2023-02-12T06:06:30.780Z,5.77
2023-02-12T06:07:04.194Z,5.77
2023-02-12T06:07:36.477Z,5.77
2023-02-12T06:08:08.397Z,5.77
2023-02-12T06:08:38.327Z,5.77
2023-02-12T06:09:13.705Z,5.77
2023-02-12T06:09:44.190Z,5.77
2023-02-12T06:10:06.802Z,5.72
2023-02-12T06:10:29.876Z,5.72
2023-02-12T06:11:07.703Z,5.72
2023-02-12T06:11:30.338Z,5.72
2023-02-12T06:12:09.544Z,5.72
2023-02-12T06:12:38.147Z,5.72
2023-02-12T06:13:11.726Z,5.72
2023-02-12T06:13:43.794Z,5.72
2023-02-12T06:14:06.529Z,5.72
2023-02-12T06:14:31.727Z,5.72
2023-02-12T06:15:04.214Z,5.72
2023-02-12T06:15:35.751Z,5.77
2023-02-12T06:16:08.335Z,5.77
2023-02-12T06:16:39.800Z,5.77
2023-02-12T06:17:11.752Z,5.88
2023-02-12T06:17:45.324Z,5.88
2023-02-12T06:18:07.363Z,5.88
2023-02-12T06:18:29.660Z,5.88
2023-02-12T06:19:03.865Z,5.88
2023-02-12T06:19:35.688Z,5.88
2023-02-12T06:20:07.752Z,5.88
2023-02-12T06:20:38.248Z,5.88
2023-02-12T06:21:11.752Z,5.88
2023-02-12T06:21:44.996Z,5.88
2023-02-12T06:22:06.836Z,5.88
2023-02-12T06:22:30.606Z,5.88
2023-02-12T06:23:05.641Z,5.88
2023-02-12T06:23:35.664Z,5.88
2023-02-12T06:24:07.736Z,5.88
2023-02-12T06:24:37.863Z,5.88
2023-02-12T06:25:11.821Z,5.88
2023-02-12T06:25:45.370Z,5.88
2023-02-12T06:26:06.444Z,5.88
2023-02-12T06:26:29.070Z,6.00
2023-02-12T06:27:03.772Z,6.00
2023-02-12T06:27:35.806Z,6.00
2023-02-12T06:28:07.997Z,6.00
2023-02-12T06:28:38.193Z,6.00
2023-02-12T06:29:11.704Z,6.00
2023-02-12T06:29:46.173Z,6.00
2023-02-12T06:30:07.070Z,6.00
2023-02-12T06:30:29.466Z,6.00
2023-02-12T06:31:04.238Z,6.00
2023-02-12T06:31:36.002Z,6.00
2023-02-12T06:32:07.831Z,6.00
2023-02-12T06:32:38.007Z,6.00
2023-02-12T06:33:11.853Z,6.00
2023-02-12T06:33:43.776Z,6.00
2023-02-12T06:34:06.521Z,6.00
2023-02-12T06:34:29.009Z,6.00
2023-02-12T06:35:05.354Z,6.00
2023-02-12T06:35:38.467Z,6.00
2023-02-12T06:36:07.881Z,6.00
2023-02-12T06:36:38.027Z,6.00
2023-02-12T06:37:12.203Z,6.00
2023-02-12T06:37:43.668Z,6.00
2023-02-12T06:38:08.201Z,6.00
2023-02-12T06:38:30.569Z,6.00
2023-02-12T06:39:03.856Z,6.00